Time;durP1;ratioP1;P1;durP2;ratioP2;P2;SDS_P1;SDS_P2;PMS_P1;PMS_P2;Temp;Humidity;BMP_temperature;BMP_pressure;BME280_temperature;BME280_humidity;BME280_pressure;Samples;Min_cycle;Max_cycle;Signal;HPM_P1;HPM_P2
2022/05/09 00:02:10;;;;;;;;;;;;;;;12.18;56.38;101900.84;4934627;28;2410;-93
2022/05/09 00:04:37;;;;;;;;;;;;;;;12.18;56.53;101900.00;4951340;28;2833;-93
2022/05/09 00:07:03;;;;;;;;;;;;;;;12.16;56.50;101897.50;4945511;29;1537;-93
2022/05/09 00:09:29;;;;;;;;;;;;;;;12.14;56.41;101896.84;4935155;29;4921;-93
2022/05/09 00:11:56;;;;;;;;;;;;;;;12.14;56.51;101891.44;4953177;28;3960;-93
2022/05/09 00:14:22;;;;;;;;;;;;;;;12.13;56.45;101894.38;4952881;28;3813;-93
2022/05/09 00:16:50;;;;;;;;;;;;;;;12.12;56.57;101885.44;4957082;29;1238;-93
2022/05/09 00:19:17;;;;;;;;;;;;;;;12.12;56.56;101881.88;4935141;29;2862;-93
2022/05/09 00:21:43;;;;;;;;;;;;;;;12.11;56.36;101885.63;4936129;29;2124;-92
2022/05/09 00:24:13;;;;;;;;;;;;;;;12.10;56.31;101886.66;4945146;28;4263;-93
2022/05/09 00:26:39;;;;;;;;;;;;;;;12.09;56.45;101887.66;4937804;29;4073;-93
2022/05/09 00:29:07;;;;;;;;;;;;;;;12.08;56.23;101886.00;4933039;29;3777;-93
2022/05/09 00:31:33;;;;;;;;;;;;;;;12.07;56.43;101884.34;4937359;29;2164;-92
2022/05/09 00:33:59;;;;;;;;;;;;;;;12.05;56.39;101890.75;4945781;28;2781;-93
2022/05/09 00:36:26;;;;;;;;;;;;;;;12.05;56.13;101890.75;4937128;29;2182;-93
2022/05/09 00:38:52;;;;;;;;;;;;;;;12.02;56.13;101883.06;4932740;29;4157;-93
2022/05/09 00:41:47;;;;;;;;;;;;;;;12.02;56.14;101885.75;4952649;29;3952;-93
2022/05/09 00:44:13;;;;;;;;;;;;;;;12.01;56.20;101872.47;4933725;29;3685;-93
2022/05/09 00:46:39;;;;;;;;;;;;;;;11.99;56.00;101872.66;4938058;29;2124;-93
2022/05/09 00:49:06;;;;;;;;;;;;;;;11.99;55.95;101872.66;4948230;28;2809;-93
2022/05/09 00:51:32;;;;;;;;;;;;;;;11.97;55.97;101863.94;4937209;29;2412;-93
2022/05/09 00:54:00;;;;;;;;;;;;;;;11.97;56.08;101866.63;4948830;28;4252;-93
2022/05/09 00:56:26;;;;;;;;;;;;;;;11.96;56.00;101856.84;4954134;29;4003;-93
2022/05/09 00:58:52;;;;;;;;;;;;;;;11.95;55.99;101857.06;4936647;29;3503;-93
2022/05/09 01:01:19;;;;;;;;;;;;;;;11.94;55.93;101869.72;4945927;29;2204;-93
2022/05/09 01:03:45;;;;;;;;;;;;;;;11.93;56.08;101870.75;4945420;28;2876;-93
2022/05/09 01:06:12;;;;;;;;;;;;;;;11.92;55.85;101871.78;4935890;29;2372;-93
2022/05/09 01:08:38;;;;;;;;;;;;;;;11.91;56.02;101869.28;4931094;29;5051;-93
2022/05/09 01:11:04;;;;;;;;;;;;;;;11.90;55.95;101865.72;4956229;28;4996;-93
2022/05/09 01:13:31;;;;;;;;;;;;;;;11.88;55.99;101878.59;4935076;29;2140;-93
2022/05/09 01:15:58;;;;;;;;;;;;;;;11.87;55.98;101873.41;4948073;28;3971;-93
2022/05/09 01:18:25;;;;;;;;;;;;;;;11.87;55.73;101871.53;4946102;28;2773;-92
2022/05/09 01:20:51;;;;;;;;;;;;;;;11.85;55.91;101862.78;4938264;28;4828;-93
2022/05/09 01:23:17;;;;;;;;;;;;;;;11.85;55.73;101868.19;4932823;29;3863;-93
2022/05/09 01:25:44;;;;;;;;;;;;;;;11.83;55.90;101871.06;4939154;29;3707;-93
2022/05/09 01:28:11;;;;;;;;;;;;;;;11.82;55.81;101863.16;4955281;29;2079;-92
2022/05/09 01:30:37;;;;;;;;;;;;;;;11.82;55.93;101869.41;4956939;28;2470;-93
2022/05/09 01:33:04;;;;;;;;;;;;;;;11.80;55.76;101863.34;4950846;28;4187;-93
2022/05/09 01:35:30;;;;;;;;;;;;;;;11.79;55.89;101864.41;4956766;28;3997;-93
2022/05/09 01:37:57;;;;;;;;;;;;;;;11.78;55.70;101861.88;4938493;29;2317;-93
2022/05/09 01:40:23;;;;;;;;;;;;;;;11.77;55.95;101858.34;4957453;29;2074;-93
2022/05/09 01:42:49;;;;;;;;;;;;;;;11.76;55.69;101859.38;4954150;28;4020;-93
2022/05/09 01:45:15;;;;;;;;;;;;;;;11.76;55.85;101861.22;4951170;29;4008;-93
2022/05/09 01:50:26;;;;;;;;;;;;;;;11.72;55.86;101852.69;4947995;29;3627;-93
2022/05/09 01:52:52;;;;;;;;;;;;;;;11.72;55.85;101846.47;4936474;28;4238;-93
2022/05/09 01:55:18;;;;;;;;;;;;;;;11.72;55.67;101843.78;4954530;28;4108;-93
2022/05/09 01:57:45;;;;;;;;;;;;;;;11.70;55.66;101840.44;4949201;29;2164;-92
2022/05/09 02:00:11;;;;;;;;;;;;;;;11.69;55.85;101834.19;4949987;29;3765;-93
2022/05/09 02:02:39;;;;;;;;;;;;;;;11.68;55.85;101831.72;4954125;28;2737;-93
2022/05/09 02:05:05;;;;;;;;;;;;;;;11.67;55.82;101822.75;4950119;28;2900;-93
2022/05/09 02:07:31;;;;;;;;;;;;;;;11.66;55.72;101825.66;4940044;29;2159;-93
2022/05/09 02:09:58;;;;;;;;;;;;;;;11.65;55.69;101821.28;4951178;28;4964;-91
2022/05/09 02:12:24;;;;;;;;;;;;;;;11.64;55.51;101814.22;4940320;29;2088;-93
2022/05/09 02:14:50;;;;;;;;;;;;;;;11.62;55.56;101819.84;4955656;29;3691;-93
2022/05/09 02:17:16;;;;;;;;;;;;;;;11.62;55.71;101819.84;4956139;29;2164;-93
2022/05/09 02:19:43;;;;;;;;;;;;;;;11.60;55.53;101811.09;4931893;29;4380;-93
2022/05/09 02:22:10;;;;;;;;;;;;;;;11.59;55.48;101812.97;4941640;29;3994;-93
2022/05/09 02:24:36;;;;;;;;;;;;;;;11.59;55.65;101812.13;4934936;28;2311;-93
2022/05/09 02:27:02;;;;;;;;;;;;;;;11.57;55.52;101815.00;4957431;29;2078;-93
2022/05/09 02:29:31;;;;;;;;;;;;;;;11.57;55.62;101819.56;4938417;29;2883;-92
2022/05/09 02:31:57;;;;;;;;;;;;;;;11.56;55.61;101821.44;4951858;29;2076;-93
2022/05/09 02:34:23;;;;;;;;;;;;;;;11.55;55.59;101810.84;4933793;29;4296;-92
2022/05/09 02:36:50;;;;;;;;;;;;;;;11.53;55.46;101816.44;4939616;29;2244;-93
2022/05/09 02:39:16;;;;;;;;;;;;;;;11.52;55.45;101820.16;4935318;29;2177;-93
2022/05/09 02:41:42;;;;;;;;;;;;;;;11.52;55.34;101822.03;4939222;29;2023;-93
2022/05/09 02:44:09;;;;;;;;;;;;;;;11.50;55.36;101810.59;4933158;29;4075;-93
2022/05/09 02:46:35;;;;;;;;;;;;;;;11.48;55.33;101826.16;4956469;29;2106;-93
2022/05/09 02:49:02;;;;;;;;;;;;;;;11.48;55.48;101823.44;4938447;29;2216;-93
2022/05/09 02:51:29;;;;;;;;;;;;;;;11.46;55.51;101820.94;4950670;29;2133;-93
2022/05/09 02:53:55;;;;;;;;;;;;;;;11.46;55.42;101820.09;4931504;28;4281;-93
2022/05/09 02:56:21;;;;;;;;;;;;;;;11.44;55.32;101824.84;4937980;29;2459;-93
2022/05/09 02:58:48;;;;;;;;;;;;;;;11.43;55.32;101826.72;4930688;28;4029;-93
2022/05/09 03:01:14;;;;;;;;;;;;;;;11.43;55.38;101826.72;4938763;29;2209;-93
2022/05/09 03:06:24;;;;;;;;;;;;;;;11.41;55.33;101815.28;4948311;29;2313;-93
2022/05/09 03:08:51;;;;;;;;;;;;;;;11.41;55.26;101814.44;4947646;28;4343;-93
2022/05/09 03:11:18;;;;;;;;;;;;;;;11.39;55.29;101806.56;4954484;28;2112;-93
2022/05/09 03:13:44;;;;;;;;;;;;;;;11.39;55.26;101814.66;4937514;29;2179;-93
2022/05/09 03:16:11;;;;;;;;;;;;;;;11.39;55.18;101814.66;4938778;29;2220;-92
2022/05/09 03:18:37;;;;;;;;;;;;;;;11.38;55.02;101810.28;4951323;28;5004;-93
2022/05/09 03:21:04;;;;;;;;;;;;;;;11.37;55.13;101811.31;4948481;28;2230;-93
2022/05/09 03:23:31;;;;;;;;;;;;;;;11.35;55.12;101806.13;4950878;29;2962;-93
2022/05/09 03:25:57;;;;;;;;;;;;;;;11.34;55.11;101809.00;4936635;29;2647;-93
2022/05/09 03:28:24;;;;;;;;;;;;;;;11.33;55.11;101810.88;4948537;28;2602;-93
2022/05/09 03:30:51;;;;;;;;;;;;;;;11.32;55.16;101811.91;4935514;29;2004;-93
2022/05/09 03:33:17;;;;;;;;;;;;;;;11.31;55.08;101812.91;4931283;29;5007;-93
2022/05/09 03:35:43;;;;;;;;;;;;;;;11.33;54.90;101812.75;4954328;29;5403;-93
2022/05/09 03:38:10;;;;;;;;;;;;;;;11.30;54.82;101810.44;4938045;29;2187;-92
2022/05/09 03:40:36;;;;;;;;;;;;;;;11.30;54.97;101821.22;4936983;29;3522;-93
2022/05/09 03:43:02;;;;;;;;;;;;;;;11.29;54.81;101812.28;4934581;29;2852;-92
2022/05/09 03:45:29;;;;;;;;;;;;;;;11.29;54.79;101811.44;4937938;29;2112;-93
2022/05/09 03:47:55;;;;;;;;;;;;;;;11.27;54.81;101813.53;4950862;28;4249;-93
2022/05/09 03:50:22;;;;;;;;;;;;;;;11.26;54.74;101812.66;4937604;29;4083;-93
2022/05/09 03:52:49;;;;;;;;;;;;;;;11.27;54.75;101818.91;4937152;29;2272;-93
2022/05/09 03:55:15;;;;;;;;;;;;;;;11.25;54.76;101811.00;4952130;28;3608;-93
2022/05/09 03:57:42;;;;;;;;;;;;;;;11.24;54.74;101822.00;4938063;28;2503;-93
2022/05/09 04:00:08;;;;;;;;;;;;;;;11.22;54.63;101821.34;4938683;29;2162;-93
2022/05/09 04:02:34;;;;;;;;;;;;;;;11.21;54.65;101820.53;4937491;28;2873;-92
2022/05/09 04:05:01;;;;;;;;;;;;;;;11.21;54.61;101814.28;4947378;28;4976;-92
2022/05/09 04:07:27;;;;;;;;;;;;;;;11.19;54.68;101817.16;4954660;29;2517;-93
2022/05/09 04:09:54;;;;;;;;;;;;;;;11.19;54.77;101819.03;4953825;29;2383;-92
2022/05/09 04:12:20;;;;;;;;;;;;;;;11.15;54.71;101815.91;4938174;29;2112;-93
2022/05/09 04:17:30;;;;;;;;;;;;;;;11.12;54.73;101810.91;4937852;29;2164;-93
2022/05/09 04:19:57;;;;;;;;;;;;;;;11.11;54.81;101814.59;4935401;29;2236;-93
2022/05/09 04:22:24;;;;;;;;;;;;;;;11.11;54.73;101811.91;4936919;29;2191;-93
2022/05/09 04:24:50;;;;;;;;;;;;;;;11.09;54.71;101811.28;4930006;29;4261;-93
2022/05/09 04:27:17;;;;;;;;;;;;;;;11.08;54.64;101806.91;4949774;29;2093;-92
2022/05/09 04:29:43;;;;;;;;;;;;;;;11.07;54.85;101816.84;4929963;29;4924;-93
2022/05/09 04:32:09;;;;;;;;;;;;;;;11.06;54.67;101809.81;4932081;29;2322;-92
2022/05/09 04:34:36;;;;;;;;;;;;;;;11.03;54.66;101804.78;4933593;29;4917;-92
2022/05/09 04:37:02;;;;;;;;;;;;;;;11.04;54.64;101806.44;4932408;29;2021;-92
2022/05/09 04:39:28;;;;;;;;;;;;;;;11.03;54.68;101812.03;4938205;29;2260;-92
2022/05/09 04:41:55;;;;;;;;;;;;;;;10.99;54.72;101811.56;4932656;29;5082;-93
2022/05/09 04:44:22;;;;;;;;;;;;;;;10.99;54.73;101805.34;4930707;29;2200;-93
2022/05/09 04:46:48;;;;;;;;;;;;;;;10.98;54.59;101804.53;4928841;29;4782;-93
2022/05/09 04:49:14;;;;;;;;;;;;;;;10.97;54.67;101802.88;4952335;28;2342;-93
2022/05/09 04:51:41;;;;;;;;;;;;;;;10.97;54.63;101804.69;4937770;29;2375;-91
2022/05/09 04:54:07;;;;;;;;;;;;;;;10.95;54.60;101804.91;4947296;28;4418;-93
2022/05/09 04:56:33;;;;;;;;;;;;;;;10.93;54.72;101796.16;4955584;28;2087;-93
2022/05/09 04:59:00;;;;;;;;;;;;;;;10.93;54.67;101798.88;4955997;28;5010;-91
2022/05/09 05:01:26;;;;;;;;;;;;;;;10.93;54.61;101790.78;4943905;29;1185;-93
2022/05/09 05:03:53;;;;;;;;;;;;;;;10.91;54.71;101793.69;4940899;29;2192;-93
2022/05/09 05:06:19;;;;;;;;;;;;;;;10.90;54.63;101792.00;4959864;29;2051;-92
2022/05/09 05:08:46;;;;;;;;;;;;;;;10.91;54.56;101792.81;4935722;29;4850;-93
2022/05/09 05:11:12;;;;;;;;;;;;;;;10.90;54.72;101796.56;4942843;29;1546;-93
2022/05/09 05:13:39;;;;;;;;;;;;;;;10.90;54.71;101788.47;4940360;29;2393;-93
2022/05/09 05:16:05;;;;;;;;;;;;;;;10.89;54.79;101798.41;4936276;29;1708;-93
2022/05/09 05:18:32;;;;;;;;;;;;;;;10.90;54.68;101799.25;4937970;28;4927;-92
2022/05/09 05:20:59;;;;;;;;;;;;;;;10.89;54.63;101792.22;4957095;28;2151;-93
2022/05/09 05:23:26;;;;;;;;;;;;;;;10.88;54.51;101795.91;4940299;28;2552;-93
2022/05/09 05:25:52;;;;;;;;;;;;;;;10.88;54.52;101801.28;4958583;28;2252;-93
2022/05/09 05:28:19;;;;;;;;;;;;;;;10.87;54.54;101789.69;4952135;28;4945;-93
2022/05/09 05:30:45;;;;;;;;;;;;;;;10.85;54.52;101786.38;4956925;28;2286;-93
2022/05/09 05:33:12;;;;;;;;;;;;;;;10.86;54.46;101785.34;4948250;29;2365;-93
2022/05/09 05:35:38;;;;;;;;;;;;;;;10.84;54.43;101776.59;4963817;28;1866;-93
2022/05/09 05:38:05;;;;;;;;;;;;;;;10.85;54.52;101785.50;4932384;28;4677;-92
2022/05/09 05:40:31;;;;;;;;;;;;;;;10.85;54.44;101780.13;4936524;29;2449;-92
2022/05/09 05:42:58;;;;;;;;;;;;;;;10.85;54.44;101780.13;4971372;28;2392;-90
2022/05/09 05:45:24;;;;;;;;;;;;;;;10.86;54.37;101779.13;4966283;28;2152;-95
2022/05/09 05:47:51;;;;;;;;;;;;;;;10.84;54.45;101784.69;4932303;28;4777;-94
2022/05/09 05:50:17;;;;;;;;;;;;;;;10.84;54.34;101776.59;4932690;29;4028;-94
2022/05/09 05:52:44;;;;;;;;;;;;;;;10.84;54.26;101781.97;4954516;28;2677;-94
2022/05/09 05:55:10;;;;;;;;;;;;;;;10.84;54.25;101778.47;4934915;29;1629;-94
2022/05/09 05:57:38;;;;;;;;;;;;;;;10.82;54.19;101781.34;4920378;28;2450;-94
2022/05/09 06:00:05;;;;;;;;;;;;;;;10.82;54.28;101773.25;4949511;28;4210;-94
2022/05/09 06:02:31;;;;;;;;;;;;;;;10.82;54.20;101778.63;4952207;28;5092;-96
2022/05/09 06:04:58;;;;;;;;;;;;;;;10.83;54.15;101774.09;4941086;29;1592;-96
2022/05/09 06:07:24;;;;;;;;;;;;;;;10.81;54.12;101776.16;4945804;29;2085;-91
2022/05/09 06:09:51;;;;;;;;;;;;;;;10.80;54.26;101769.94;4937879;29;2624;-93
2022/05/09 06:12:17;;;;;;;;;;;;;;;10.80;54.20;101772.63;4955853;28;1236;-92
2022/05/09 06:14:44;;;;;;;;;;;;;;;10.80;54.00;101774.50;4955720;28;4231;-92
2022/05/09 06:17:10;;;;;;;;;;;;;;;10.79;53.99;101762.03;4958117;29;1727;-92
2022/05/09 06:19:37;;;;;;;;;;;;;;;10.78;53.95;101771.97;4940863;29;2163;-92
2022/05/09 06:22:03;;;;;;;;;;;;;;;10.78;53.98;101758.50;4942336;29;1262;-93
2022/05/09 06:24:30;;;;;;;;;;;;;;;10.78;53.97;101763.88;4953048;28;4215;-93
2022/05/09 06:26:57;;;;;;;;;;;;;;;10.80;53.95;101761.84;4969037;28;2083;-94
2022/05/09 06:29:23;;;;;;;;;;;;;;;10.79;53.69;101767.41;4964937;28;1958;-93
2022/05/09 06:31:50;;;;;;;;;;;;;;;10.77;53.92;101759.53;4943059;29;2022;-93
2022/05/09 06:34:16;;;;;;;;;;;;;;;10.77;53.75;101756.00;4956035;28;2255;-92
2022/05/09 06:36:43;;;;;;;;;;;;;;;10.78;53.63;101761.19;4958083;29;1180;-93
2022/05/09 06:39:10;;;;;;;;;;;;;;;10.78;53.59;101754.97;4951590;28;4791;-92
2022/05/09 06:41:37;;;;;;;;;;;;;;;10.77;53.62;101753.31;4955876;28;1196;-92
2022/05/09 06:44:03;;;;;;;;;;;;;;;10.76;53.50;101748.94;4958967;28;2205;-92
2022/05/09 06:46:30;;;;;;;;;;;;;;;10.75;53.47;101745.41;4977803;28;1169;-92
2022/05/09 06:48:57;;;;;;;;;;;;;;;10.76;53.47;101754.31;4960995;28;4920;-92
2022/05/09 06:51:23;;;;;;;;;;;;;;;10.75;53.29;101745.41;4949085;29;1122;-92
2022/05/09 06:53:52;;;;;;;;;;;;;;;10.76;53.36;101755.16;4949658;29;1777;-93
2022/05/09 06:56:18;;;;;;;;;;;;;;;10.75;53.21;101747.28;4956928;29;1492;-93
2022/05/09 06:58:45;;;;;;;;;;;;;;;10.76;53.19;101746.25;4956604;28;2758;-93
2022/05/09 07:01:11;;;;;;;;;;;;;;;10.76;53.10;101738.97;4957529;29;1174;-93
2022/05/09 07:03:38;;;;;;;;;;;;;;;10.76;53.12;101730.91;4953371;28;4151;-92
2022/05/09 07:06:05;;;;;;;;;;;;;;;10.75;53.11;101739.19;4950505;29;1372;-92
2022/05/09 07:08:32;;;;;;;;;;;;;;;10.74;53.21;101738.38;4947205;29;2053;-92
2022/05/09 07:10:58;;;;;;;;;;;;;;;10.76;53.11;101733.59;4953648;28;1405;-92
2022/05/09 07:13:25;;;;;;;;;;;;;;;10.76;53.13;101733.59;4953569;28;4972;-93
2022/05/09 07:15:54;;;;;;;;;;;;;;;10.76;53.16;101738.97;4940802;29;1903;-92
2022/05/09 07:18:23;;;;;;;;;;;;;;;10.75;53.14;101734.63;4940594;29;2244;-93
2022/05/09 07:20:49;;;;;;;;;;;;;;;10.75;53.08;101736.50;4956745;28;1802;-93
2022/05/09 07:23:15;;;;;;;;;;;;;;;10.75;53.15;101731.94;4940360;29;2188;-92
2022/05/09 07:25:42;;;;;;;;;;;;;;;10.75;53.09;101748.09;4940058;29;1470;-92
2022/05/09 07:28:10;;;;;;;;;;;;;;;10.75;53.21;101741.88;4970740;28;2418;-93
2022/05/09 07:30:36;;;;;;;;;;;;;;;10.75;53.17;101739.19;4941683;29;1307;-92
2022/05/09 07:33:03;;;;;;;;;;;;;;;10.77;53.08;101737.16;4947781;28;2915;-93
2022/05/09 07:35:31;;;;;;;;;;;;;;;10.79;53.01;101744.00;4937733;29;1684;-93
2022/05/09 07:37:57;;;;;;;;;;;;;;;10.76;53.12;101740.84;4938940;28;4031;-92
2022/05/09 07:40:23;;;;;;;;;;;;;;;10.75;53.26;101742.72;4935710;29;4643;-92
2022/05/09 07:42:50;;;;;;;;;;;;;;;10.76;53.14;101748.94;4937110;29;2203;-92
2022/05/09 07:45:17;;;;;;;;;;;;;;;10.77;53.15;101746.06;4953562;29;2126;-92
2022/05/09 07:47:43;;;;;;;;;;;;;;;10.77;53.12;101750.63;4939519;28;4366;-92
2022/05/09 07:50:10;;;;;;;;;;;;;;;10.81;53.03;101741.13;4938603;29;3582;-92
2022/05/09 07:52:36;;;;;;;;;;;;;;;10.78;53.13;101741.50;4957633;29;1960;-93
2022/05/09 07:55:03;;;;;;;;;;;;;;;10.77;53.12;101740.66;4939215;29;2286;-92
2022/05/09 07:57:29;;;;;;;;;;;;;;;10.77;53.35;101737.16;4933476;29;2622;-92
2022/05/09 07:59:58;;;;;;;;;;;;;;;10.78;53.23;101734.25;4937750;29;4140;-92
2022/05/09 08:02:24;;;;;;;;;;;;;;;10.76;53.23;101736.28;4940070;29;2452;-92
2022/05/09 08:04:51;;;;;;;;;;;;;;;10.76;53.38;101724.69;4936495;29;2057;-92
2022/05/09 08:07:18;;;;;;;;;;;;;;;10.76;53.39;101736.28;4940210;29;2013;-92
2022/05/09 08:09:44;;;;;;;;;;;;;;;10.76;53.39;101733.59;4932554;29;4392;-92
2022/05/09 08:12:11;;;;;;;;;;;;;;;10.77;53.26;101735.28;4934806;29;2148;-92
2022/05/09 08:14:37;;;;;;;;;;;;;;;10.77;53.34;101729.06;4955654;29;2333;-91
2022/05/09 08:17:08;;;;;;;;;;;;;;;10.79;53.34;101737.78;4939908;29;2439;-92
2022/05/09 08:19:34;;;;;;;;;;;;;;;10.77;53.31;101732.59;4950768;28;4446;-92
2022/05/09 08:22:01;;;;;;;;;;;;;;;10.78;53.33;101731.56;4949554;28;2106;-92
2022/05/09 08:24:28;;;;;;;;;;;;;;;10.78;53.32;101728.03;4934848;29;2238;-92
2022/05/09 08:26:55;;;;;;;;;;;;;;;10.81;53.28;101733.03;4939492;29;2431;-93
2022/05/09 08:29:22;;;;;;;;;;;;;;;10.79;53.34;101729.69;4936316;29;2218;-93
2022/05/09 08:31:48;;;;;;;;;;;;;;;10.81;53.36;101730.34;4954501;29;2375;-92
2022/05/09 08:34:15;;;;;;;;;;;;;;;10.81;53.34;101719.56;4930259;29;4666;-92
2022/05/09 08:36:51;;;;;;;;;;;;;;;10.81;53.32;101716.84;4955990;29;2147;-92
2022/05/09 08:39:17;;;;;;;;;;;;;;;10.82;53.35;101716.66;4944342;29;4038;-93
2022/05/09 08:41:43;;;;;;;;;;;;;;;10.82;53.28;101722.03;4944081;29;2423;-93
2022/05/09 08:44:10;;;;;;;;;;;;;;;10.83;53.27;101710.25;4934032;29;2992;-93
2022/05/09 08:46:38;;;;;;;;;;;;;;;10.82;53.30;101713.97;4950945;29;2275;-92
2022/05/09 08:49:04;;;;;;;;;;;;;;;10.84;53.42;101711.09;4951622;28;4920;-92
2022/05/09 08:51:31;;;;;;;;;;;;;;;10.85;53.24;101713.59;4961361;28;2196;-92
2022/05/09 08:53:57;;;;;;;;;;;;;;;10.89;53.30;101714.03;4937789;29;2759;-91
2022/05/09 08:56:25;;;;;;;;;;;;;;;10.85;53.23;101712.75;4950084;29;2336;-91
2022/05/09 08:58:53;;;;;;;;;;;;;;;10.87;53.38;101708.84;4954283;28;2422;-91
2022/05/09 09:01:20;;;;;;;;;;;;;;;10.88;53.38;101715.91;4953412;29;2406;-92
2022/05/09 09:03:47;;;;;;;;;;;;;;;10.89;53.43;101700.56;4950821;28;4944;-92
2022/05/09 09:06:13;;;;;;;;;;;;;;;10.89;53.45;101695.19;4954906;29;2499;-92
2022/05/09 09:08:40;;;;;;;;;;;;;;;10.90;53.37;101691.44;4935628;29;2021;-93
2022/05/09 09:11:06;;;;;;;;;;;;;;;10.89;53.32;101696.00;4944277;29;2322;-92
2022/05/09 09:13:33;;;;;;;;;;;;;;;10.89;53.47;101695.19;4937631;29;2788;-92
2022/05/09 09:16:00;;;;;;;;;;;;;;;10.88;53.53;101691.66;4955400;29;1310;-92
2022/05/09 09:18:26;;;;;;;;;;;;;;;10.88;53.53;101697.03;4950020;28;4440;-93
2022/05/09 09:20:53;;;;;;;;;;;;;;;10.88;53.65;101699.75;4940447;29;2244;-92
2022/05/09 09:23:19;;;;;;;;;;;;;;;10.90;53.51;101694.13;4937792;29;2211;-95
2022/05/09 09:25:46;;;;;;;;;;;;;;;10.93;53.52;101692.91;4937456;29;3987;-96
2022/05/09 09:28:12;;;;;;;;;;;;;;;10.93;53.46;101685.66;4937484;29;2238;-95
2022/05/09 09:30:39;;;;;;;;;;;;;;;10.91;53.58;101691.25;4954123;29;2268;-96
2022/05/09 09:33:05;;;;;;;;;;;;;;;10.93;53.58;101684.84;4945501;28;4244;-95
2022/05/09 09:35:32;;;;;;;;;;;;;;;10.94;53.69;101681.09;4954434;28;2089;-93
2022/05/09 09:38:05;;;;;;;;;;;;;;;10.94;53.50;101676.53;4936711;29;2267;-94
2022/05/09 09:40:35;;;;;;;;;;;;;;;10.95;53.66;101663.91;4936056;29;3822;-93
2022/05/09 09:43:01;;;;;;;;;;;;;;;10.95;53.63;101666.63;4932454;28;2827;-94
2022/05/09 09:45:28;;;;;;;;;;;;;;;10.97;53.62;101667.22;4933572;29;2091;-95
2022/05/09 09:47:54;;;;;;;;;;;;;;;10.97;53.77;101675.31;4940104;28;4930;-94
2022/05/09 09:50:21;;;;;;;;;;;;;;;10.97;53.77;101675.31;4955466;29;4264;-94
2022/05/09 09:52:48;;;;;;;;;;;;;;;10.97;53.68;101668.09;4941788;29;2246;-93
2022/05/09 09:55:14;;;;;;;;;;;;;;;10.97;53.81;101672.63;4957978;29;2181;-94
2022/05/09 09:57:41;;;;;;;;;;;;;;;10.97;53.89;101668.09;4951313;28;2380;-93
2022/05/09 10:00:08;;;;;;;;;;;;;;;10.96;53.92;101665.56;4954510;28;4849;-94
2022/05/09 10:02:34;;;;;;;;;;;;;;;10.95;54.14;101667.44;4935770;29;2363;-94
2022/05/09 10:05:01;;;;;;;;;;;;;;;10.97;53.88;101662.69;4956732;29;2031;-94
2022/05/09 10:07:27;;;;;;;;;;;;;;;10.99;53.96;101666.00;4950720;29;2071;-93
2022/05/09 10:09:54;;;;;;;;;;;;;;;11.01;54.01;101666.66;4956485;28;2541;-93
2022/05/09 10:12:21;;;;;;;;;;;;;;;11.03;53.82;101656.53;4951220;29;2399;-94
2022/05/09 10:14:47;;;;;;;;;;;;;;;11.04;53.93;101657.34;4934801;29;4143;-94
2022/05/09 10:17:14;;;;;;;;;;;;;;;11.05;53.83;101657.13;4949686;29;2335;-93
2022/05/09 10:19:41;;;;;;;;;;;;;;;11.05;54.03;101654.44;4957143;29;1690;-96
2022/05/09 10:24:52;;;;;;;;;;;;;;;11.07;54.10;101649.69;4933977;29;4299;-93
2022/05/09 10:27:19;;;;;;;;;;;;;;;11.07;54.02;101641.59;4940107;29;2377;-94
2022/05/09 10:29:47;;;;;;;;;;;;;;;11.09;54.05;101638.72;4940057;29;4373;-94
2022/05/09 10:32:14;;;;;;;;;;;;;;;11.08;54.13;101627.09;4951705;29;2166;-94
2022/05/09 10:34:40;;;;;;;;;;;;;;;11.11;54.13;101631.25;4935701;29;2140;-94
2022/05/09 10:37:07;;;;;;;;;;;;;;;11.12;54.13;101632.94;4958095;28;2086;-94
2022/05/09 10:39:33;;;;;;;;;;;;;;;11.13;54.23;101631.91;4951480;28;4109;-94
2022/05/09 10:42:00;;;;;;;;;;;;;;;11.13;54.19;101621.13;4942111;29;2274;-94
2022/05/09 10:44:29;;;;;;;;;;;;;;;11.12;54.35;101632.94;4943930;29;1990;-94
2022/05/09 10:46:56;;;;;;;;;;;;;;;11.14;54.35;101614.69;4942389;29;1961;-94
2022/05/09 10:49:22;;;;;;;;;;;;;;;11.11;54.45;101621.31;4952227;28;2553;-94
2022/05/09 10:51:49;;;;;;;;;;;;;;;11.13;54.42;101605.78;4956131;29;1937;-93
2022/05/09 10:54:18;;;;;;;;;;;;;;;11.15;54.39;101594.81;4937958;29;4412;-94
2022/05/09 10:56:44;;;;;;;;;;;;;;;11.17;54.48;101606.19;4956254;29;2130;-94
2022/05/09 10:59:11;;;;;;;;;;;;;;;11.20;54.35;101607.66;4935994;29;4220;-96
2022/05/09 11:01:38;;;;;;;;;;;;;;;11.23;54.32;101601.88;4953557;29;2347;-95
2022/05/09 11:04:04;;;;;;;;;;;;;;;11.23;54.36;101601.88;4945573;29;2375;-96
2022/05/09 11:06:31;;;;;;;;;;;;;;;11.24;54.50;101585.53;4959989;28;4143;-95
2022/05/09 11:08:57;;;;;;;;;;;;;;;11.27;54.35;101592.38;4953537;28;5021;-96
2022/05/09 11:11:25;;;;;;;;;;;;;;;11.29;54.23;101585.72;4950272;28;2757;-94
2022/05/09 11:13:51;;;;;;;;;;;;;;;11.29;54.41;101574.94;4947830;29;2975;-93
2022/05/09 11:16:18;;;;;;;;;;;;;;;11.30;54.28;101579.31;4938447;29;2178;-92
2022/05/09 11:18:44;;;;;;;;;;;;;;;11.31;54.29;101575.59;4955516;28;2856;-93
2022/05/09 11:21:11;;;;;;;;;;;;;;;11.33;54.40;101573.53;4947365;28;4920;-93
2022/05/09 11:23:37;;;;;;;;;;;;;;;11.34;54.55;101574.34;4951101;29;2272;-93
2022/05/09 11:26:04;;;;;;;;;;;;;;;11.34;54.73;101566.28;4938509;29;3880;-94
2022/05/09 11:28:30;;;;;;;;;;;;;;;11.34;54.58;101575.19;4951483;29;2398;-93
2022/05/09 11:30:56;;;;;;;;;;;;;;;11.36;54.50;101573.13;4937450;29;2924;-93
2022/05/09 11:33:23;;;;;;;;;;;;;;;11.39;54.34;101568.38;4946767;28;4967;-94
2022/05/09 11:35:49;;;;;;;;;;;;;;;11.38;54.42;101572.91;4937180;29;3008;-93
2022/05/09 11:38:15;;;;;;;;;;;;;;;11.40;54.58;101583.53;4953310;29;2422;-92
2022/05/09 11:40:42;;;;;;;;;;;;;;;11.41;54.43;101569.81;4953053;29;2156;-93
2022/05/09 11:45:53;;;;;;;;;;;;;;;11.43;54.37;101561.53;4954421;28;3875;-94
2022/05/09 11:48:20;;;;;;;;;;;;;;;11.42;54.52;101563.41;4952425;29;2494;-93
2022/05/09 11:50:46;;;;;;;;;;;;;;;11.45;54.44;101567.56;4939385;29;2216;-92
2022/05/09 11:53:12;;;;;;;;;;;;;;;11.46;54.57;101553.88;4935310;29;4275;-93
2022/05/09 11:55:41;;;;;;;;;;;;;;;11.46;54.41;101548.47;4949892;29;5005;-92
2022/05/09 11:58:07;;;;;;;;;;;;;;;11.48;54.51;101548.28;4944120;29;2279;-95
2022/05/09 12:00:33;;;;;;;;;;;;;;;11.47;54.55;101547.47;4950657;29;2951;-94
2022/05/09 12:03:00;;;;;;;;;;;;;;;11.49;54.59;101560.72;4946790;28;4939;-94
2022/05/09 12:05:26;;;;;;;;;;;;;;;11.49;54.57;101549.94;4953786;29;3910;-94
2022/05/09 12:07:53;;;;;;;;;;;;;;;11.52;54.66;101538.75;4951466;28;1968;-94
2022/05/09 12:10:19;;;;;;;;;;;;;;;11.51;54.70;101542.50;4934632;29;2083;-94
2022/05/09 12:12:49;;;;;;;;;;;;;;;11.51;54.71;101535.22;4953853;29;2341;-94
2022/05/09 12:15:15;;;;;;;;;;;;;;;11.53;54.70;101543.94;4954483;28;2043;-93
2022/05/09 12:17:42;;;;;;;;;;;;;;;11.56;54.57;101542.72;4937699;28;4259;-94
2022/05/09 12:20:09;;;;;;;;;;;;;;;11.55;54.70;101536.47;4953257;28;4197;-94
2022/05/09 12:22:35;;;;;;;;;;;;;;;11.59;54.59;101542.31;4939612;29;1980;-93
2022/05/09 12:25:02;;;;;;;;;;;;;;;11.64;54.45;101544.38;4934179;29;3850;-94
2022/05/09 12:27:29;;;;;;;;;;;;;;;11.64;54.47;101533.59;4949542;29;2459;-94
2022/05/09 12:29:58;;;;;;;;;;;;;;;11.65;54.64;101540.66;4953452;28;2723;-94
2022/05/09 12:32:25;;;;;;;;;;;;;;;11.66;54.62;101537.75;4948797;29;2474;-93
2022/05/09 12:34:51;;;;;;;;;;;;;;;11.64;54.77;101512.84;4933075;29;5211;-94
2022/05/09 12:37:18;;;;;;;;;;;;;;;11.65;54.61;101528.00;4955924;29;2372;-94
2022/05/09 12:39:44;;;;;;;;;;;;;;;11.66;54.57;101526.97;4949181;29;2359;-94
2022/05/09 12:42:12;;;;;;;;;;;;;;;11.71;54.75;101515.56;4953028;29;2189;-94
2022/05/09 12:44:38;;;;;;;;;;;;;;;11.72;54.59;101517.22;4949170;28;4187;-93
2022/05/09 12:47:05;;;;;;;;;;;;;;;11.77;54.66;101525.56;4954489;29;2323;-94
2022/05/09 12:49:31;;;;;;;;;;;;;;;11.75;54.72;101514.94;4938006;29;2255;-95
2022/05/09 12:51:58;;;;;;;;;;;;;;;11.78;54.49;101519.09;4948685;28;2395;-95
2022/05/09 12:54:24;;;;;;;;;;;;;;;11.78;54.72;101514.53;4951153;28;4500;-94
2022/05/09 12:56:52;;;;;;;;;;;;;;;11.82;54.64;101512.25;4948717;29;2336;-94
2022/05/09 12:59:19;;;;;;;;;;;;;;;11.82;54.63;101509.56;4946590;28;2031;-93